createdAt,value
2022-12-28T11:02:03.556Z,21.93
2022-12-28T11:22:28.247Z,28.97
2022-12-28T11:27:28.985Z,29.00
2022-12-28T11:31:49.801Z,28.77
2022-12-28T11:36:08.326Z,28.83
2022-12-28T11:46:02.013Z,31.93
2022-12-28T11:50:47.843Z,29.13
2022-12-28T11:55:08.584Z,30.80
2022-12-28T11:59:38.703Z,34.87
2022-12-28T12:04:14.076Z,28.93
2022-12-28T12:08:47.132Z,32.57
2022-12-28T12:13:39.061Z,35.33
2022-12-28T12:18:25.306Z,25.70
2022-12-28T12:22:53.702Z,26.27
2022-12-28T12:27:13.994Z,26.07
2022-12-28T12:31:32.226Z,27.00
2022-12-28T12:35:54.534Z,25.27
2022-12-28T12:40:29.042Z,19.40
2022-12-28T12:44:45.590Z,32.07
2022-12-28T12:49:33.295Z,30.33
2022-12-28T12:59:05.978Z,31.03
2022-12-28T13:08:44.521Z,21.97
2022-12-28T13:13:26.166Z,22.37
2022-12-28T13:22:59.206Z,32.07
2022-12-28T13:27:20.422Z,24.40
2022-12-28T13:46:34.004Z,26.67
2022-12-28T13:55:28.317Z,18.57
2022-12-28T13:59:45.697Z,23.07
2022-12-28T14:04:50.605Z,23.23
2022-12-28T14:08:53.082Z,19.93
2022-12-28T14:32:11.251Z,22.83
2022-12-28T14:37:39.864Z,31.53
2022-12-28T14:42:45.561Z,26.93
2022-12-28T14:53:18.368Z,26.47
2022-12-28T15:17:15.054Z,25.33
2022-12-28T15:32:02.168Z,31.33
2022-12-28T15:37:20.956Z,35.67
2022-12-28T15:41:55.433Z,28.33
2022-12-28T15:46:18.380Z,30.53
2022-12-28T15:51:17.258Z,26.70
2022-12-28T15:56:06.833Z,34.63
2022-12-28T16:05:46.839Z,32.00
2022-12-28T16:10:42.444Z,38.33
2022-12-28T16:15:18.671Z,39.70
2022-12-28T16:20:00.499Z,35.33
2022-12-28T16:34:42.806Z,37.80
2022-12-28T16:39:18.479Z,39.20
2022-12-28T16:44:12.772Z,34.33
2022-12-28T16:49:07.483Z,33.63
2022-12-28T17:03:35.542Z,26.93
2022-12-28T17:08:01.937Z,21.93
2022-12-28T17:27:52.585Z,27.50
2022-12-28T17:38:09.970Z,30.47
2022-12-28T17:42:19.765Z,36.83
2022-12-28T17:46:32.111Z,36.13
2022-12-28T17:50:47.367Z,27.33
2022-12-28T17:54:58.630Z,31.83
2022-12-28T18:03:44.502Z,36.90
2022-12-28T18:07:53.931Z,30.93
2022-12-28T18:12:07.671Z,34.53
2022-12-28T18:26:24.138Z,31.47
2022-12-28T18:30:48.587Z,33.50
2022-12-28T18:39:41.745Z,34.63
2022-12-28T18:48:46.348Z,24.70
2022-12-28T18:52:58.828Z,20.37
2022-12-28T18:57:08.106Z,24.20
2022-12-28T19:02:06.463Z,19.37
2022-12-28T19:06:46.661Z,24.53
2022-12-28T19:11:32.280Z,25.10
2022-12-28T19:16:04.411Z,23.63
2022-12-28T19:20:14.303Z,27.10
2022-12-28T19:39:57.781Z,20.77
2022-12-28T19:44:21.448Z,22.90
2022-12-28T19:48:48.301Z,18.57
2022-12-28T19:53:03.686Z,21.73
2022-12-28T19:57:15.180Z,22.03
2022-12-28T20:01:28.992Z,21.13
2022-12-28T20:05:51.831Z,16.00
2022-12-28T20:10:03.071Z,23.03
2022-12-28T20:14:15.843Z,23.43
